NWK1643 YPPD-YPPH
Flight info
| Callsign | NWK1643 |
|---|---|
| Flight time | 1h 49m |
| Altitude | 38000 |
| Route | PD Q9 AVPAL Q38 PH |
| Aircraft | A320/M-SDE3FGHIRWY/LB1 |
Departure
| Time | 2026-04-25 06:57 |
|---|---|
| Airport | Port Hedland International Airport (YPPD) |
Arrival
| Time | 2026-04-25 08:46 |
|---|---|
| Airport | Perth International Airport (YPPH) |
| Time | Latitude | Longitude | Altitude | Speed | Heading |
|---|---|---|---|---|---|
| 2026-04-25 06:28 | -20.37862 | 118.63150 | 33 ft | 0 kts | 47° |
| 2026-04-25 06:50 | -20.37861 | 118.63151 | 33 ft | 1 kts | 50° |
| 2026-04-25 06:51 | -20.37862 | 118.63166 | 33 ft | 2 kts | 117° |
| 2026-04-25 06:51 | -20.37881 | 118.63170 | 31 ft | 4 kts | 174° |
| 2026-04-25 06:51 | -20.37918 | 118.63173 | 33 ft | 7 kts | 174° |
| 2026-04-25 06:51 | -20.37970 | 118.63179 | 33 ft | 8 kts | 176° |
| 2026-04-25 06:52 | -20.38031 | 118.63178 | 33 ft | 7 kts | 190° |
| 2026-04-25 06:52 | -20.38075 | 118.63143 | 33 ft | 9 kts | 232° |
| 2026-04-25 06:52 | -20.38120 | 118.63088 | 33 ft | 11 kts | 226° |
| 2026-04-25 06:52 | -20.38173 | 118.63027 | 33 ft | 10 kts | 227° |
| 2026-04-25 06:53 | -20.38231 | 118.62976 | 33 ft | 11 kts | 193° |
| 2026-04-25 06:53 | -20.38294 | 118.63024 | 34 ft | 12 kts | 136° |
| 2026-04-25 06:53 | -20.38358 | 118.63087 | 35 ft | 13 kts | 138° |
| 2026-04-25 06:53 | -20.38432 | 118.63158 | 33 ft | 15 kts | 137° |
| 2026-04-25 06:54 | -20.38511 | 118.63235 | 36 ft | 16 kts | 137° |
| 2026-04-25 06:54 | -20.38597 | 118.63318 | 36 ft | 18 kts | 137° |
| 2026-04-25 06:54 | -20.38694 | 118.63414 | 35 ft | 20 kts | 137° |
| 2026-04-25 06:54 | -20.38803 | 118.63520 | 34 ft | 22 kts | 137° |
| 2026-04-25 06:55 | -20.38913 | 118.63628 | 33 ft | 20 kts | 138° |
| 2026-04-25 06:55 | -20.39002 | 118.63715 | 32 ft | 13 kts | 137° |
| 2026-04-25 06:55 | -20.39048 | 118.63772 | 33 ft | 9 kts | 172° |
| 2026-04-25 06:55 | -20.39051 | 118.63754 | 33 ft | 3 kts | 323° |
| 2026-04-25 06:56 | -20.39024 | 118.63735 | 33 ft | 6 kts | 319° |
| 2026-04-25 06:56 | -20.38961 | 118.63675 | 33 ft | 34 kts | 317° |
| 2026-04-25 06:56 | -20.38614 | 118.63336 | 36 ft | 98 kts | 317° |
| 2026-04-25 06:56 | -20.37977 | 118.62717 | 36 ft | 147 kts | 318° |
| 2026-04-25 06:57 | -20.37197 | 118.61957 | 498 ft | 151 kts | 324° |
| 2026-04-25 06:57 | -20.36425 | 118.61193 | 1025 ft | 151 kts | 323° |
| 2026-04-25 06:57 | -20.35908 | 118.60687 | 1365 ft | 154 kts | 323° |
| 2026-04-25 06:57 | -20.35009 | 118.59433 | 1797 ft | 181 kts | 288° |
| 2026-04-25 06:58 | -20.35047 | 118.58495 | 1893 ft | 205 kts | 253° |
| 2026-04-25 06:58 | -20.35993 | 118.57276 | 2078 ft | 230 kts | 205° |
| 2026-04-25 06:58 | -20.37599 | 118.56994 | 2369 ft | 245 kts | 164° |
| 2026-04-25 06:58 | -20.39773 | 118.57943 | 2950 ft | 265 kts | 153° |
| 2026-04-25 06:59 | -20.41433 | 118.58806 | 3832 ft | 263 kts | 150° |
| 2026-04-25 06:59 | -20.43055 | 118.59678 | 4850 ft | 261 kts | 151° |
| 2026-04-25 06:59 | -20.44175 | 118.60150 | 5403 ft | 265 kts | 167° |
| 2026-04-25 06:59 | -20.46024 | 118.59984 | 6216 ft | 277 kts | 199° |
| 2026-04-25 07:00 | -20.47688 | 118.58906 | 7025 ft | 282 kts | 208° |
| 2026-04-25 07:00 | -20.49492 | 118.58172 | 7786 ft | 277 kts | 185° |
| 2026-04-25 07:00 | -20.51413 | 118.57911 | 8569 ft | 280 kts | 184° |
| 2026-04-25 07:00 | -20.53360 | 118.57630 | 9352 ft | 283 kts | 185° |
| 2026-04-25 07:01 | -20.55326 | 118.57328 | 10050 ft | 289 kts | 185° |
| 2026-04-25 07:01 | -20.57386 | 118.57001 | 10326 ft | 311 kts | 185° |
| 2026-04-25 07:01 | -20.59599 | 118.56639 | 10584 ft | 330 kts | 186° |
| 2026-04-25 07:01 | -20.61896 | 118.56251 | 11143 ft | 337 kts | 186° |
| 2026-04-25 07:02 | -20.64222 | 118.55851 | 11782 ft | 341 kts | 187° |
| 2026-04-25 07:02 | -20.66576 | 118.55444 | 12437 ft | 344 kts | 187° |
| 2026-04-25 07:02 | -20.68953 | 118.55034 | 13073 ft | 348 kts | 188° |
| 2026-04-25 07:02 | -20.71360 | 118.54623 | 13695 ft | 352 kts | 188° |
| 2026-04-25 07:03 | -20.73793 | 118.54209 | 14246 ft | 355 kts | 188° |
| 2026-04-25 07:03 | -20.76242 | 118.53796 | 14815 ft | 358 kts | 188° |
| 2026-04-25 07:03 | -20.78709 | 118.53378 | 15361 ft | 360 kts | 188° |
| 2026-04-25 07:03 | -20.81195 | 118.52958 | 15914 ft | 363 kts | 188° |
| 2026-04-25 07:04 | -20.83696 | 118.52534 | 16470 ft | 365 kts | 188° |
| 2026-04-25 07:04 | -20.86218 | 118.52103 | 16986 ft | 369 kts | 189° |
| 2026-04-25 07:04 | -20.88761 | 118.51670 | 17531 ft | 371 kts | 189° |
| 2026-04-25 07:04 | -20.91327 | 118.51234 | 18057 ft | 375 kts | 189° |
| 2026-04-25 07:05 | -20.93874 | 118.50802 | 18539 ft | 377 kts | 189° |
| 2026-04-25 07:05 | -20.96466 | 118.50364 | 19017 ft | 378 kts | 190° |
| 2026-04-25 07:05 | -20.99077 | 118.49924 | 19471 ft | 381 kts | 190° |
| 2026-04-25 07:05 | -21.01709 | 118.49482 | 19938 ft | 384 kts | 190° |
| 2026-04-25 07:06 | -21.04352 | 118.49035 | 20394 ft | 387 kts | 191° |
| 2026-04-25 07:06 | -21.07022 | 118.48578 | 20866 ft | 389 kts | 191° |
| 2026-04-25 07:06 | -21.09705 | 118.48118 | 21336 ft | 392 kts | 191° |
| 2026-04-25 07:06 | -21.12410 | 118.47655 | 21812 ft | 394 kts | 192° |
| 2026-04-25 07:07 | -21.15135 | 118.47187 | 22296 ft | 397 kts | 192° |
| 2026-04-25 07:07 | -21.17860 | 118.46720 | 22842 ft | 397 kts | 192° |
| 2026-04-25 07:07 | -21.20598 | 118.46255 | 23343 ft | 399 kts | 192° |
| 2026-04-25 07:07 | -21.23349 | 118.45788 | 23763 ft | 401 kts | 193° |
| 2026-04-25 07:08 | -21.26112 | 118.45319 | 24129 ft | 403 kts | 193° |
| 2026-04-25 07:08 | -21.28892 | 118.44844 | 24480 ft | 406 kts | 193° |
| 2026-04-25 07:08 | -21.31660 | 118.44371 | 24827 ft | 409 kts | 193° |
| 2026-04-25 07:08 | -21.34516 | 118.43883 | 25172 ft | 412 kts | 193° |
| 2026-04-25 07:09 | -21.37355 | 118.43396 | 25510 ft | 414 kts | 193° |
| 2026-04-25 07:09 | -21.40210 | 118.42908 | 25853 ft | 417 kts | 193° |
| 2026-04-25 07:09 | -21.43051 | 118.42423 | 26181 ft | 420 kts | 193° |
| 2026-04-25 07:09 | -21.45944 | 118.41929 | 26520 ft | 422 kts | 193° |
| 2026-04-25 07:10 | -21.48853 | 118.41434 | 26866 ft | 424 kts | 193° |
| 2026-04-25 07:10 | -21.51772 | 118.40937 | 27191 ft | 426 kts | 194° |
| 2026-04-25 07:10 | -21.54707 | 118.40435 | 27507 ft | 428 kts | 194° |
| 2026-04-25 07:10 | -21.57659 | 118.39930 | 27823 ft | 431 kts | 194° |
| 2026-04-25 07:11 | -21.60638 | 118.39419 | 28124 ft | 433 kts | 194° |
| 2026-04-25 07:11 | -21.63624 | 118.38905 | 28440 ft | 436 kts | 194° |
| 2026-04-25 07:11 | -21.66628 | 118.38388 | 28754 ft | 439 kts | 194° |
| 2026-04-25 07:11 | -21.69652 | 118.37868 | 29063 ft | 441 kts | 194° |
| 2026-04-25 07:12 | -21.72693 | 118.37347 | 29377 ft | 444 kts | 194° |
| 2026-04-25 07:12 | -21.78826 | 118.36304 | 30081 ft | 447 kts | 195° |
| 2026-04-25 07:12 | -21.81908 | 118.35779 | 30356 ft | 450 kts | 195° |
| 2026-04-25 07:13 | -21.85008 | 118.35249 | 30636 ft | 451 kts | 195° |
| 2026-04-25 07:13 | -21.88120 | 118.34713 | 30914 ft | 453 kts | 195° |
| 2026-04-25 07:13 | -21.91237 | 118.34176 | 31231 ft | 453 kts | 195° |
| 2026-04-25 07:13 | -21.94347 | 118.33640 | 31618 ft | 452 kts | 196° |
| 2026-04-25 07:14 | -21.97451 | 118.33106 | 32012 ft | 451 kts | 196° |
| 2026-04-25 07:14 | -22.00517 | 118.32576 | 32400 ft | 451 kts | 196° |
| 2026-04-25 07:14 | -22.03609 | 118.32038 | 32788 ft | 450 kts | 197° |
| 2026-04-25 07:14 | -22.06695 | 118.31484 | 33182 ft | 448 kts | 197° |
| 2026-04-25 07:15 | -22.09766 | 118.30913 | 33561 ft | 448 kts | 197° |
| 2026-04-25 07:15 | -22.12829 | 118.30334 | 33975 ft | 447 kts | 198° |
| 2026-04-25 07:15 | -22.15889 | 118.29758 | 34305 ft | 446 kts | 198° |
| 2026-04-25 07:15 | -22.18954 | 118.29185 | 34603 ft | 447 kts | 198° |
| 2026-04-25 07:16 | -22.22016 | 118.28614 | 34891 ft | 447 kts | 198° |
| 2026-04-25 07:16 | -22.25085 | 118.28045 | 35178 ft | 447 kts | 198° |
| 2026-04-25 07:16 | -22.28161 | 118.27475 | 35461 ft | 447 kts | 198° |
| 2026-04-25 07:16 | -22.31230 | 118.26906 | 35739 ft | 448 kts | 198° |
| 2026-04-25 07:17 | -22.34301 | 118.26336 | 36029 ft | 448 kts | 198° |
| 2026-04-25 07:17 | -22.37334 | 118.25773 | 36337 ft | 447 kts | 198° |
| 2026-04-25 07:17 | -22.40403 | 118.25205 | 36614 ft | 447 kts | 198° |
| 2026-04-25 07:17 | -22.43468 | 118.24639 | 36863 ft | 447 kts | 198° |
| 2026-04-25 07:18 | -22.46535 | 118.24072 | 37109 ft | 447 kts | 198° |
| 2026-04-25 07:18 | -22.49607 | 118.23501 | 37355 ft | 448 kts | 198° |
| 2026-04-25 07:18 | -22.52676 | 118.22929 | 37640 ft | 448 kts | 199° |
| 2026-04-25 07:18 | -22.55744 | 118.22358 | 37894 ft | 448 kts | 199° |
| 2026-04-25 07:19 | -22.58825 | 118.21783 | 38005 ft | 450 kts | 199° |
| 2026-04-25 07:19 | -22.61915 | 118.21207 | 38019 ft | 451 kts | 198° |
| 2026-04-25 07:19 | -22.68106 | 118.20061 | 38013 ft | 451 kts | 199° |
| 2026-04-25 07:20 | -22.74284 | 118.18914 | 38018 ft | 450 kts | 199° |
| 2026-04-25 07:20 | -22.80460 | 118.17755 | 38014 ft | 450 kts | 199° |
| 2026-04-25 07:21 | -22.86631 | 118.16599 | 38010 ft | 450 kts | 199° |
| 2026-04-25 07:21 | -22.92806 | 118.15444 | 38010 ft | 450 kts | 199° |
| 2026-04-25 07:22 | -22.98985 | 118.14283 | 38024 ft | 450 kts | 199° |
| 2026-04-25 07:22 | -23.05161 | 118.13128 | 38026 ft | 450 kts | 199° |
| 2026-04-25 07:23 | -23.11341 | 118.11976 | 38024 ft | 450 kts | 199° |
| 2026-04-25 07:23 | -23.17513 | 118.10821 | 38019 ft | 450 kts | 199° |
| 2026-04-25 07:24 | -23.23639 | 118.09664 | 38035 ft | 450 kts | 200° |
| 2026-04-25 07:24 | -23.29818 | 118.08501 | 38019 ft | 450 kts | 200° |
| 2026-04-25 07:25 | -23.35995 | 118.07342 | 38017 ft | 450 kts | 200° |
| 2026-04-25 07:25 | -23.42132 | 118.06194 | 38014 ft | 450 kts | 200° |
| 2026-04-25 07:26 | -23.48298 | 118.05032 | 38007 ft | 450 kts | 200° |
| 2026-04-25 07:26 | -23.54468 | 118.03864 | 38027 ft | 450 kts | 200° |
| 2026-04-25 07:27 | -23.60641 | 118.02693 | 38010 ft | 450 kts | 200° |
| 2026-04-25 07:27 | -23.66821 | 118.01516 | 38002 ft | 450 kts | 200° |
| 2026-04-25 07:28 | -23.73001 | 118.00354 | 38001 ft | 450 kts | 200° |
| 2026-04-25 07:28 | -23.79176 | 117.99188 | 38002 ft | 450 kts | 200° |
| 2026-04-25 07:29 | -23.85312 | 117.98026 | 38016 ft | 450 kts | 200° |
| 2026-04-25 07:29 | -23.91481 | 117.96855 | 38018 ft | 450 kts | 200° |
| 2026-04-25 07:30 | -23.97650 | 117.95679 | 38004 ft | 450 kts | 200° |
| 2026-04-25 07:30 | -24.03817 | 117.94506 | 38006 ft | 450 kts | 200° |
| 2026-04-25 07:31 | -24.09984 | 117.93331 | 38014 ft | 449 kts | 200° |
| 2026-04-25 07:31 | -24.16146 | 117.92154 | 38030 ft | 449 kts | 200° |
| 2026-04-25 07:32 | -24.22304 | 117.90980 | 38022 ft | 448 kts | 200° |
| 2026-04-25 07:32 | -24.28405 | 117.89820 | 38022 ft | 448 kts | 200° |
| 2026-04-25 07:33 | -24.34546 | 117.88647 | 38017 ft | 447 kts | 200° |
| 2026-04-25 07:33 | -24.40671 | 117.87474 | 38016 ft | 447 kts | 200° |
| 2026-04-25 07:34 | -24.46799 | 117.86299 | 38028 ft | 446 kts | 201° |
| 2026-04-25 07:34 | -24.52921 | 117.85126 | 38025 ft | 446 kts | 201° |
| 2026-04-25 07:35 | -24.59050 | 117.83966 | 38021 ft | 447 kts | 201° |
| 2026-04-25 07:35 | -24.65169 | 117.82797 | 38021 ft | 446 kts | 201° |
| 2026-04-25 07:36 | -24.71290 | 117.81610 | 38043 ft | 446 kts | 201° |
| 2026-04-25 07:36 | -24.77409 | 117.80432 | 38031 ft | 446 kts | 201° |
| 2026-04-25 07:37 | -24.83531 | 117.79256 | 38028 ft | 446 kts | 201° |
| 2026-04-25 07:37 | -24.89600 | 117.78084 | 38024 ft | 446 kts | 201° |
| 2026-04-25 07:38 | -24.95722 | 117.76903 | 38028 ft | 446 kts | 201° |
| 2026-04-25 07:38 | -25.01841 | 117.75720 | 38026 ft | 446 kts | 201° |
| 2026-04-25 07:39 | -25.07950 | 117.74537 | 38030 ft | 446 kts | 201° |
| 2026-04-25 07:39 | -25.14059 | 117.73356 | 38022 ft | 446 kts | 201° |
| 2026-04-25 07:40 | -25.20172 | 117.72174 | 38023 ft | 445 kts | 201° |
| 2026-04-25 07:40 | -25.26246 | 117.70989 | 38033 ft | 446 kts | 201° |
| 2026-04-25 07:41 | -25.32332 | 117.69812 | 38040 ft | 442 kts | 202° |
| 2026-04-25 07:41 | -25.38380 | 117.68640 | 38038 ft | 440 kts | 202° |
| 2026-04-25 07:42 | -25.44411 | 117.67463 | 38041 ft | 440 kts | 202° |
| 2026-04-25 07:42 | -25.50435 | 117.66289 | 38040 ft | 440 kts | 202° |
| 2026-04-25 07:43 | -25.56467 | 117.65114 | 38066 ft | 439 kts | 202° |
| 2026-04-25 07:43 | -25.62483 | 117.63933 | 38059 ft | 438 kts | 202° |
| 2026-04-25 07:44 | -25.68479 | 117.62751 | 38053 ft | 437 kts | 202° |
| 2026-04-25 07:44 | -25.74424 | 117.61588 | 38057 ft | 436 kts | 202° |
| 2026-04-25 07:45 | -25.80399 | 117.60418 | 38053 ft | 436 kts | 202° |
| 2026-04-25 07:45 | -25.86370 | 117.59248 | 38075 ft | 435 kts | 202° |
| 2026-04-25 07:46 | -25.92316 | 117.58083 | 38064 ft | 433 kts | 202° |
| 2026-04-25 07:46 | -25.97249 | 117.57116 | 38069 ft | 432 kts | 202° |
| 2026-04-25 07:47 | -26.03172 | 117.55954 | 38066 ft | 432 kts | 202° |
| 2026-04-25 07:47 | -26.09084 | 117.54790 | 38064 ft | 431 kts | 202° |
| 2026-04-25 07:48 | -26.14995 | 117.53625 | 38088 ft | 431 kts | 202° |
| 2026-04-25 07:48 | -26.20904 | 117.52454 | 38081 ft | 430 kts | 202° |
| 2026-04-25 07:49 | -26.26798 | 117.51289 | 38075 ft | 430 kts | 202° |
| 2026-04-25 07:49 | -26.32692 | 117.50129 | 38080 ft | 430 kts | 202° |
| 2026-04-25 07:50 | -26.38583 | 117.48964 | 38075 ft | 430 kts | 202° |
| 2026-04-25 07:50 | -26.44467 | 117.47791 | 38100 ft | 430 kts | 202° |
| 2026-04-25 07:51 | -26.50354 | 117.46624 | 38076 ft | 428 kts | 203° |
| 2026-04-25 07:51 | -26.56183 | 117.45469 | 38076 ft | 428 kts | 203° |
| 2026-04-25 07:52 | -26.62062 | 117.44308 | 38078 ft | 429 kts | 203° |
| 2026-04-25 07:52 | -26.67939 | 117.43136 | 38085 ft | 429 kts | 203° |
| 2026-04-25 07:53 | -26.73823 | 117.41963 | 38103 ft | 429 kts | 203° |
| 2026-04-25 07:53 | -26.79710 | 117.40795 | 38101 ft | 429 kts | 203° |
| 2026-04-25 07:54 | -26.85589 | 117.39628 | 38101 ft | 429 kts | 203° |
| 2026-04-25 07:54 | -26.91468 | 117.38452 | 38107 ft | 429 kts | 203° |
| 2026-04-25 07:55 | -26.97311 | 117.37285 | 38103 ft | 429 kts | 203° |
| 2026-04-25 07:55 | -27.03190 | 117.36107 | 38113 ft | 429 kts | 203° |
| 2026-04-25 07:56 | -27.09063 | 117.34929 | 38109 ft | 429 kts | 203° |
| 2026-04-25 07:56 | -27.14941 | 117.33752 | 38106 ft | 429 kts | 203° |
| 2026-04-25 07:57 | -27.20816 | 117.32566 | 38123 ft | 429 kts | 203° |
| 2026-04-25 07:57 | -27.26692 | 117.31381 | 38140 ft | 429 kts | 202° |
| 2026-04-25 07:58 | -27.32570 | 117.30204 | 38139 ft | 429 kts | 203° |
| 2026-04-25 07:58 | -27.38438 | 117.29025 | 38130 ft | 428 kts | 203° |
| 2026-04-25 07:59 | -27.44305 | 117.27852 | 38137 ft | 428 kts | 203° |
| 2026-04-25 07:59 | -27.50134 | 117.26681 | 38136 ft | 428 kts | 203° |
| 2026-04-25 08:00 | -27.55985 | 117.25502 | 38142 ft | 427 kts | 202° |
| 2026-04-25 08:00 | -27.61798 | 117.24336 | 38127 ft | 423 kts | 202° |
| 2026-04-25 08:01 | -27.67597 | 117.23153 | 38141 ft | 423 kts | 202° |
| 2026-04-25 08:01 | -27.73390 | 117.21968 | 38142 ft | 423 kts | 202° |
| 2026-04-25 08:02 | -27.79194 | 117.20796 | 38148 ft | 423 kts | 202° |
| 2026-04-25 08:02 | -27.84996 | 117.19618 | 38149 ft | 424 kts | 202° |
| 2026-04-25 08:03 | -27.90796 | 117.18435 | 38158 ft | 423 kts | 202° |
| 2026-04-25 08:03 | -27.96561 | 117.17255 | 38171 ft | 424 kts | 202° |
| 2026-04-25 08:04 | -28.02368 | 117.16070 | 38162 ft | 424 kts | 202° |
| 2026-04-25 08:04 | -28.08174 | 117.14883 | 38160 ft | 424 kts | 202° |
| 2026-04-25 08:05 | -28.13983 | 117.13700 | 38167 ft | 423 kts | 201° |
| 2026-04-25 08:05 | -28.19774 | 117.12513 | 38160 ft | 423 kts | 201° |
| 2026-04-25 08:06 | -28.25562 | 117.11325 | 38161 ft | 423 kts | 201° |
| 2026-04-25 08:06 | -28.31354 | 117.10126 | 38166 ft | 423 kts | 201° |
| 2026-04-25 08:07 | -28.37161 | 117.08939 | 38164 ft | 423 kts | 201° |
| 2026-04-25 08:07 | -28.42959 | 117.07744 | 38190 ft | 424 kts | 201° |
| 2026-04-25 08:08 | -28.48730 | 117.06556 | 38174 ft | 424 kts | 201° |
| 2026-04-25 08:08 | -28.54540 | 117.05366 | 38173 ft | 424 kts | 201° |
| 2026-04-25 08:09 | -28.60353 | 117.04169 | 38173 ft | 424 kts | 201° |
| 2026-04-25 08:09 | -28.66162 | 117.02970 | 38198 ft | 425 kts | 200° |
| 2026-04-25 08:10 | -28.71983 | 117.01763 | 38181 ft | 425 kts | 200° |
| 2026-04-25 08:10 | -28.77820 | 117.00562 | 38182 ft | 426 kts | 200° |
| 2026-04-25 08:11 | -28.83660 | 116.99354 | 38179 ft | 427 kts | 200° |
| 2026-04-25 08:11 | -28.89506 | 116.98140 | 38182 ft | 427 kts | 200° |
| 2026-04-25 08:12 | -28.95315 | 116.96933 | 38192 ft | 428 kts | 199° |
| 2026-04-25 08:12 | -29.01186 | 116.95714 | 38185 ft | 429 kts | 199° |
| 2026-04-25 08:13 | -29.07062 | 116.94496 | 38186 ft | 429 kts | 199° |
| 2026-04-25 08:14 | -29.15895 | 116.92660 | 38184 ft | 430 kts | 199° |
| 2026-04-25 08:14 | -29.21781 | 116.91434 | 38202 ft | 430 kts | 198° |
| 2026-04-25 08:15 | -29.27630 | 116.90181 | 38184 ft | 428 kts | 202° |
| 2026-04-25 08:15 | -29.33323 | 116.88305 | 38186 ft | 425 kts | 204° |
| 2026-04-25 08:16 | -29.38981 | 116.86320 | 38192 ft | 425 kts | 205° |
| 2026-04-25 08:16 | -29.44648 | 116.84323 | 38195 ft | 426 kts | 205° |
| 2026-04-25 08:17 | -29.50330 | 116.82335 | 38200 ft | 427 kts | 203° |
| 2026-04-25 08:17 | -29.56036 | 116.80360 | 38186 ft | 429 kts | 203° |
| 2026-04-25 08:18 | -29.61757 | 116.78371 | 38185 ft | 430 kts | 203° |
| 2026-04-25 08:18 | -29.67494 | 116.76376 | 38191 ft | 431 kts | 203° |
| 2026-04-25 08:19 | -29.73236 | 116.74375 | 37878 ft | 434 kts | 203° |
| 2026-04-25 08:19 | -29.76120 | 116.73368 | 37287 ft | 430 kts | 202° |
| 2026-04-25 08:19 | -29.78973 | 116.72373 | 36689 ft | 430 kts | 202° |
| 2026-04-25 08:19 | -29.81837 | 116.71373 | 36194 ft | 428 kts | 202° |
| 2026-04-25 08:20 | -29.84682 | 116.70378 | 35770 ft | 426 kts | 202° |
| 2026-04-25 08:20 | -29.87512 | 116.69386 | 35322 ft | 424 kts | 201° |
| 2026-04-25 08:20 | -29.90295 | 116.68411 | 34873 ft | 422 kts | 201° |
| 2026-04-25 08:20 | -29.93099 | 116.67431 | 34422 ft | 421 kts | 201° |
| 2026-04-25 08:21 | -29.95897 | 116.66453 | 33928 ft | 419 kts | 201° |
| 2026-04-25 08:21 | -29.98682 | 116.65475 | 33463 ft | 416 kts | 201° |
| 2026-04-25 08:21 | -30.01446 | 116.64502 | 33004 ft | 414 kts | 201° |
| 2026-04-25 08:21 | -30.04197 | 116.63537 | 32554 ft | 412 kts | 200° |
| 2026-04-25 08:22 | -30.06938 | 116.62572 | 32093 ft | 411 kts | 200° |
| 2026-04-25 08:22 | -30.09663 | 116.61612 | 31651 ft | 408 kts | 200° |
| 2026-04-25 08:22 | -30.12373 | 116.60656 | 31218 ft | 406 kts | 200° |
| 2026-04-25 08:22 | -30.15073 | 116.59702 | 30779 ft | 405 kts | 200° |
| 2026-04-25 08:23 | -30.17761 | 116.58754 | 30358 ft | 404 kts | 199° |
| 2026-04-25 08:23 | -30.20450 | 116.57811 | 29897 ft | 402 kts | 199° |
| 2026-04-25 08:23 | -30.23119 | 116.56876 | 29484 ft | 400 kts | 199° |
| 2026-04-25 08:23 | -30.25769 | 116.55944 | 29087 ft | 397 kts | 199° |
| 2026-04-25 08:24 | -30.28391 | 116.55021 | 28690 ft | 390 kts | 199° |
| 2026-04-25 08:24 | -30.30974 | 116.54112 | 28304 ft | 387 kts | 199° |
| 2026-04-25 08:24 | -30.33549 | 116.53204 | 27910 ft | 386 kts | 198° |
| 2026-04-25 08:24 | -30.36110 | 116.52300 | 27519 ft | 384 kts | 198° |
| 2026-04-25 08:25 | -30.38662 | 116.51395 | 27117 ft | 383 kts | 198° |
| 2026-04-25 08:25 | -30.41209 | 116.50494 | 26712 ft | 381 kts | 197° |
| 2026-04-25 08:25 | -30.43738 | 116.49596 | 26314 ft | 380 kts | 197° |
| 2026-04-25 08:25 | -30.46228 | 116.48712 | 25906 ft | 379 kts | 197° |
| 2026-04-25 08:26 | -30.48743 | 116.47817 | 25494 ft | 378 kts | 196° |
| 2026-04-25 08:26 | -30.51259 | 116.46923 | 25059 ft | 378 kts | 196° |
| 2026-04-25 08:26 | -30.53773 | 116.46031 | 24640 ft | 378 kts | 196° |
| 2026-04-25 08:26 | -30.56286 | 116.45142 | 24201 ft | 378 kts | 195° |
| 2026-04-25 08:27 | -30.58804 | 116.44251 | 23756 ft | 379 kts | 195° |
| 2026-04-25 08:27 | -30.61321 | 116.43358 | 23267 ft | 378 kts | 195° |
| 2026-04-25 08:27 | -30.63816 | 116.42471 | 22824 ft | 371 kts | 195° |
| 2026-04-25 08:27 | -30.66262 | 116.41598 | 22396 ft | 365 kts | 195° |
| 2026-04-25 08:28 | -30.68670 | 116.40738 | 21971 ft | 360 kts | 195° |
| 2026-04-25 08:28 | -30.71065 | 116.39876 | 21545 ft | 359 kts | 195° |
| 2026-04-25 08:28 | -30.73456 | 116.39015 | 21119 ft | 359 kts | 195° |
| 2026-04-25 08:28 | -30.75842 | 116.38158 | 20689 ft | 358 kts | 195° |
| 2026-04-25 08:29 | -30.78228 | 116.37304 | 20264 ft | 358 kts | 195° |
| 2026-04-25 08:29 | -30.80610 | 116.36454 | 19838 ft | 358 kts | 195° |
| 2026-04-25 08:29 | -30.82993 | 116.35605 | 19409 ft | 359 kts | 195° |
| 2026-04-25 08:29 | -30.85384 | 116.34752 | 18979 ft | 359 kts | 195° |
| 2026-04-25 08:30 | -30.87749 | 116.33904 | 18546 ft | 351 kts | 195° |
| 2026-04-25 08:30 | -30.90092 | 116.33065 | 18095 ft | 351 kts | 195° |
| 2026-04-25 08:30 | -30.92395 | 116.32244 | 17667 ft | 349 kts | 195° |
| 2026-04-25 08:30 | -30.94697 | 116.31423 | 17253 ft | 343 kts | 195° |
| 2026-04-25 08:31 | -30.96961 | 116.30613 | 16844 ft | 337 kts | 196° |
| 2026-04-25 08:31 | -30.99184 | 116.29815 | 16444 ft | 332 kts | 196° |
| 2026-04-25 08:31 | -31.01376 | 116.29027 | 16048 ft | 327 kts | 196° |
| 2026-04-25 08:31 | -31.03535 | 116.28250 | 15663 ft | 324 kts | 196° |
| 2026-04-25 08:32 | -31.05695 | 116.27474 | 15277 ft | 325 kts | 197° |
| 2026-04-25 08:32 | -31.07858 | 116.26699 | 14883 ft | 324 kts | 197° |
| 2026-04-25 08:32 | -31.09996 | 116.25933 | 14504 ft | 319 kts | 197° |
| 2026-04-25 08:32 | -31.11395 | 116.25431 | 14251 ft | 316 kts | 198° |
| 2026-04-25 08:33 | -31.13481 | 116.24681 | 13852 ft | 311 kts | 199° |
| 2026-04-25 08:33 | -31.15532 | 116.23943 | 13464 ft | 305 kts | 198° |
| 2026-04-25 08:33 | -31.17540 | 116.23219 | 13097 ft | 301 kts | 198° |
| 2026-04-25 08:33 | -31.20215 | 116.22250 | 12615 ft | 300 kts | 199° |
| 2026-04-25 08:34 | -31.22209 | 116.21529 | 12252 ft | 300 kts | 198° |
| 2026-04-25 08:34 | -31.23528 | 116.21054 | 12011 ft | 299 kts | 198° |
| 2026-04-25 08:34 | -31.25521 | 116.20338 | 11643 ft | 299 kts | 198° |
| 2026-04-25 08:34 | -31.27507 | 116.19625 | 11280 ft | 298 kts | 198° |
| 2026-04-25 08:35 | -31.30098 | 116.18693 | 10805 ft | 290 kts | 198° |
| 2026-04-25 08:35 | -31.31393 | 116.18225 | 10519 ft | 288 kts | 199° |
| 2026-04-25 08:35 | -31.33324 | 116.17525 | 9989 ft | 290 kts | 199° |
| 2026-04-25 08:35 | -31.35236 | 116.16835 | 9597 ft | 286 kts | 198° |
| 2026-04-25 08:36 | -31.37137 | 116.16149 | 9240 ft | 286 kts | 199° |
| 2026-04-25 08:36 | -31.39032 | 116.15465 | 8887 ft | 284 kts | 198° |
| 2026-04-25 08:36 | -31.40877 | 116.14799 | 8546 ft | 279 kts | 198° |
| 2026-04-25 08:36 | -31.42724 | 116.14132 | 8200 ft | 277 kts | 198° |
| 2026-04-25 08:37 | -31.44564 | 116.13466 | 7858 ft | 277 kts | 198° |
| 2026-04-25 08:37 | -31.46403 | 116.12799 | 7515 ft | 277 kts | 198° |
| 2026-04-25 08:37 | -31.48241 | 116.12130 | 7169 ft | 275 kts | 198° |
| 2026-04-25 08:37 | -31.50051 | 116.11472 | 6832 ft | 270 kts | 198° |
| 2026-04-25 08:38 | -31.51831 | 116.10825 | 6485 ft | 265 kts | 198° |
| 2026-04-25 08:38 | -31.53588 | 116.10186 | 6147 ft | 264 kts | 198° |
| 2026-04-25 08:38 | -31.55343 | 116.09546 | 5813 ft | 264 kts | 197° |
| 2026-04-25 08:38 | -31.57096 | 116.08907 | 5483 ft | 264 kts | 197° |
| 2026-04-25 08:39 | -31.58854 | 116.08269 | 5153 ft | 264 kts | 196° |
| 2026-04-25 08:39 | -31.60612 | 116.07630 | 4811 ft | 265 kts | 196° |
| 2026-04-25 08:39 | -31.62374 | 116.06991 | 4468 ft | 264 kts | 196° |
| 2026-04-25 08:39 | -31.64097 | 116.06368 | 4117 ft | 261 kts | 195° |
| 2026-04-25 08:40 | -31.65834 | 116.05738 | 3785 ft | 261 kts | 196° |
| 2026-04-25 08:40 | -31.67555 | 116.05115 | 3452 ft | 254 kts | 196° |
| 2026-04-25 08:40 | -31.69206 | 116.04515 | 3320 ft | 241 kts | 197° |
| 2026-04-25 08:40 | -31.70770 | 116.03947 | 3230 ft | 229 kts | 197° |
| 2026-04-25 08:41 | -31.72256 | 116.03406 | 3136 ft | 218 kts | 197° |
| 2026-04-25 08:41 | -31.73667 | 116.02892 | 3045 ft | 207 kts | 196° |
| 2026-04-25 08:41 | -31.75030 | 116.02395 | 2956 ft | 205 kts | 196° |
| 2026-04-25 08:41 | -31.76377 | 116.01904 | 2867 ft | 198 kts | 196° |
| 2026-04-25 08:42 | -31.77664 | 116.01435 | 2784 ft | 191 kts | 197° |
| 2026-04-25 08:42 | -31.78926 | 116.00974 | 2710 ft | 189 kts | 196° |
| 2026-04-25 08:42 | -31.80188 | 116.00553 | 2540 ft | 188 kts | 194° |
| 2026-04-25 08:42 | -31.81449 | 116.00170 | 2365 ft | 184 kts | 193° |
| 2026-04-25 08:43 | -31.82666 | 115.99812 | 2108 ft | 175 kts | 193° |
| 2026-04-25 08:43 | -31.83820 | 115.99476 | 1881 ft | 168 kts | 193° |
| 2026-04-25 08:43 | -31.84947 | 115.99148 | 1661 ft | 163 kts | 194° |
| 2026-04-25 08:43 | -31.86004 | 115.98841 | 1431 ft | 154 kts | 194° |
| 2026-04-25 08:44 | -31.87000 | 115.98552 | 1248 ft | 142 kts | 196° |
| 2026-04-25 08:44 | -31.87922 | 115.98285 | 1093 ft | 134 kts | 196° |
| 2026-04-25 08:44 | -31.88824 | 115.98022 | 831 ft | 133 kts | 195° |
| 2026-04-25 08:44 | -31.89721 | 115.97759 | 656 ft | 132 kts | 196° |
| 2026-04-25 08:45 | -31.90607 | 115.97496 | 470 ft | 133 kts | 195° |
| 2026-04-25 08:45 | -31.91497 | 115.97239 | 359 ft | 131 kts | 194° |
| 2026-04-25 08:45 | -31.92380 | 115.96984 | 208 ft | 131 kts | 195° |
| 2026-04-25 08:45 | -31.93256 | 115.96730 | 68 ft | 123 kts | 195° |
| 2026-04-25 08:46 | -31.93952 | 115.96528 | 67 ft | 79 kts | 193° |
| 2026-04-25 08:46 | -31.94315 | 115.96420 | 62 ft | 28 kts | 193° |
| 2026-04-25 08:46 | -31.94425 | 115.96337 | 65 ft | 17 kts | 250° |
| 2026-04-25 08:46 | -31.94407 | 115.96199 | 68 ft | 16 kts | 293° |
| 2026-04-25 08:47 | -31.94304 | 115.96189 | 66 ft | 17 kts | 15° |
| 2026-04-25 08:47 | -31.94179 | 115.96223 | 65 ft | 20 kts | 13° |
| 2026-04-25 08:47 | -31.94054 | 115.96260 | 65 ft | 18 kts | 8° |
| 2026-04-25 08:47 | -31.93938 | 115.96238 | 67 ft | 15 kts | 345° |
| 2026-04-25 08:48 | -31.93831 | 115.96208 | 67 ft | 16 kts | 346° |
| 2026-04-25 08:48 | -31.93729 | 115.96184 | 63 ft | 10 kts | 354° |
| 2026-04-25 08:48 | -31.93654 | 115.96178 | 64 ft | 12 kts | 6° |
| 2026-04-25 08:48 | -31.93564 | 115.96204 | 65 ft | 15 kts | 14° |
| 2026-04-25 08:49 | -31.93482 | 115.96254 | 66 ft | 7 kts | 30° |
| 2026-04-25 08:49 | -31.93430 | 115.96282 | 66 ft | 9 kts | 16° |
| 2026-04-25 08:49 | -31.93395 | 115.96230 | 60 ft | 10 kts | 290° |
| 2026-04-25 08:49 | -31.93387 | 115.96205 | 64 ft | 3 kts | 290° |
| 2026-04-25 08:50 | -31.93380 | 115.96183 | 60 ft | 0 kts | 290° |